Time;durP1;ratioP1;P1;durP2;ratioP2;P2;SDS_P1;SDS_P2;PMS_P1;PMS_P2;Temp;Humidity;BMP_temperature;BMP_pressure;BME280_temperature;BME280_humidity;BME280_pressure;Samples;Min_cycle;Max_cycle;Signal;HPM_P1;HPM_P2
2024/01/16 00:00:06;;;;;;;12.80;7.57;;;1.50;99.90;;;;;;5109024;28;20238;-58
2024/01/16 00:02:32;;;;;;;12.68;6.80;;;1.50;99.90;;;;;;5109246;28;20222;-59
2024/01/16 00:04:57;;;;;;;16.00;7.38;;;1.50;99.90;;;;;;5109220;28;20166;-59
2024/01/16 00:07:23;;;;;;;12.93;6.22;;;1.50;99.90;;;;;;5108868;28;20153;-59
2024/01/16 00:09:52;;;;;;;13.38;5.50;;;1.50;99.90;;;;;;5108898;28;20168;-57
2024/01/16 00:12:18;;;;;;;8.38;4.75;;;1.50;99.90;;;;;;5108772;28;20644;-59
2024/01/16 00:14:43;;;;;;;8.82;5.53;;;1.40;99.90;;;;;;5108722;28;20172;-58
2024/01/16 00:17:09;;;;;;;8.68;4.82;;;1.40;99.90;;;;;;5109181;28;20235;-58
2024/01/16 00:19:35;;;;;;;16.63;7.10;;;1.30;99.90;;;;;;5108583;28;20568;-50
2024/01/16 00:22:02;;;;;;;12.20;6.03;;;1.40;99.90;;;;;;5108591;28;20165;-54
2024/01/16 00:24:28;;;;;;;6.57;4.38;;;1.40;99.90;;;;;;5108523;28;20180;-56
2024/01/16 00:26:53;;;;;;;11.13;5.32;;;1.30;99.90;;;;;;5108598;28;20165;-57
2024/01/16 00:29:20;;;;;;;13.20;6.07;;;1.30;99.90;;;;;;5108720;28;20171;-53
2024/01/16 00:31:45;;;;;;;10.30;5.43;;;1.40;99.90;;;;;;5108763;28;20171;-59
2024/01/16 00:34:11;;;;;;;15.50;6.22;;;1.40;99.90;;;;;;5109191;28;20161;-60
2024/01/16 00:36:37;;;;;;;8.98;4.43;;;2.00;99.90;;;;;;5108789;28;20240;-59
2024/01/16 00:39:03;;;;;;;14.32;6.25;;;1.30;99.90;;;;;;5108699;28;20187;-59
2024/01/16 00:41:28;;;;;;;12.35;5.35;;;1.40;99.90;;;;;;5108500;28;20181;-59
2024/01/16 00:43:54;;;;;;;15.98;5.68;;;1.30;99.90;;;;;;5108267;28;20571;-59
2024/01/16 00:46:20;;;;;;;10.15;5.20;;;1.30;99.90;;;;;;5108124;28;20173;-55
2024/01/16 00:48:46;;;;;;;13.00;4.82;;;1.30;99.90;;;;;;5108340;28;20176;-59
2024/01/16 00:51:11;;;;;;;13.07;5.35;;;1.30;99.90;;;;;;5108028;28;20160;-49
2024/01/16 00:53:44;;;;;;;13.70;5.90;;;1.30;99.90;;;;;;5108508;28;20169;-59
2024/01/16 00:56:10;;;;;;;13.43;6.30;;;1.40;99.90;;;;;;5108242;28;20709;-59
2024/01/16 00:58:36;;;;;;;12.57;4.80;;;1.40;99.90;;;;;;5107946;28;20213;-59
2024/01/16 01:01:01;;;;;;;8.95;4.60;;;1.30;99.90;;;;;;5108183;28;20255;-59
2024/01/16 01:03:27;;;;;;;14.32;6.10;;;1.40;99.90;;;;;;5107888;28;20172;-59
2024/01/16 01:05:52;;;;;;;10.13;5.05;;;1.30;99.90;;;;;;5107477;28;20614;-60
2024/01/16 01:08:18;;;;;;;9.15;5.25;;;1.40;99.90;;;;;;5097889;28;20180;-60
2024/01/16 01:10:44;;;;;;;12.48;4.88;;;1.40;99.90;;;;;;5094109;28;20170;-59
2024/01/16 01:13:10;;;;;;;14.45;5.28;;;1.30;99.90;;;;;;5094644;28;20164;-59
2024/01/16 01:15:35;;;;;;;14.18;5.43;;;1.30;99.90;;;;;;5093965;28;20222;-59
2024/01/16 01:18:01;;;;;;;9.35;5.68;;;1.30;99.90;;;;;;5094030;28;20177;-58
2024/01/16 01:20:26;;;;;;;4.38;3.45;;;1.30;99.90;;;;;;5093937;28;20612;-59
2024/01/16 01:22:52;;;;;;;9.38;4.65;;;1.30;99.90;;;;;;5093902;28;20168;-59
2024/01/16 01:25:17;;;;;;;8.70;4.80;;;1.30;99.90;;;;;;5094149;28;20176;-58
2024/01/16 01:27:43;;;;;;;12.52;4.80;;;1.30;99.90;;;;;;5094091;28;20708;-58
2024/01/16 01:30:12;;;;;;;10.32;3.70;;;1.40;99.90;;;;;;5094314;28;20168;-58
2024/01/16 01:32:38;;;;;;;10.55;5.38;;;1.30;99.90;;;;;;5094428;28;20180;-55
2024/01/16 01:35:05;;;;;;;11.65;5.40;;;1.40;99.90;;;;;;5094006;28;20203;-55
2024/01/16 01:37:31;;;;;;;8.30;4.47;;;1.30;99.90;;;;;;5093611;28;20208;-58
2024/01/16 01:39:56;;;;;;;8.98;5.65;;;1.30;99.90;;;;;;5093887;28;20161;-59
2024/01/16 01:42:22;;;;;;;11.57;5.72;;;1.30;99.90;;;;;;5093679;28;20660;-60
2024/01/16 01:44:48;;;;;;;10.95;5.38;;;1.30;99.90;;;;;;5093562;28;20673;-59
2024/01/16 01:47:14;;;;;;;10.13;5.47;;;1.30;99.90;;;;;;5093538;28;20173;-59
2024/01/16 01:49:41;;;;;;;8.57;5.97;;;1.30;99.90;;;;;;5093740;28;20173;-60
2024/01/16 01:52:07;;;;;;;9.10;4.85;;;1.30;99.90;;;;;;5093955;28;20165;-59
2024/01/16 01:54:36;;;;;;;8.52;4.45;;;1.30;99.90;;;;;;5093255;28;20172;-59
2024/01/16 01:57:02;;;;;;;9.15;5.50;;;1.30;99.90;;;;;;5092952;28;20225;-59
2024/01/16 01:59:29;;;;;;;10.45;4.68;;;1.30;99.90;;;;;;5093177;28;20203;-59
2024/01/16 02:01:55;;;;;;;11.38;4.95;;;1.20;99.90;;;;;;5093097;28;20165;-59
2024/01/16 02:04:23;;;;;;;19.50;6.15;;;1.20;99.90;;;;;;5093141;28;20172;-60
2024/01/16 02:06:49;;;;;;;13.35;4.75;;;1.30;99.90;;;;;;5093132;28;20162;-57
2024/01/16 02:09:14;;;;;;;9.80;5.20;;;1.30;99.90;;;;;;5093217;28;20169;-60
2024/01/16 02:11:43;;;;;;;8.88;4.78;;;1.20;99.90;;;;;;5093475;28;20591;-59
2024/01/16 02:14:09;;;;;;;12.50;5.20;;;1.30;99.90;;;;;;5093584;28;20173;-59
2024/01/16 02:16:40;;;;;;;11.88;4.88;;;1.30;99.90;;;;;;5092785;28;20743;-57
2024/01/16 02:19:07;;;;;;;15.40;4.55;;;1.20;99.90;;;;;;5092322;28;20218;-57
2024/01/16 02:21:41;;;;;;;8.98;4.93;;;1.30;99.90;;;;;;5092777;28;20166;-59
2024/01/16 02:24:09;;;;;;;5.97;3.70;;;1.30;99.90;;;;;;5093220;28;20176;-59
2024/01/16 02:26:35;;;;;;;6.03;3.80;;;1.20;99.90;;;;;;5092684;28;20173;-58
2024/01/16 02:29:02;;;;;;;8.93;3.67;;;1.20;99.90;;;;;;5092615;28;20162;-59
2024/01/16 02:31:28;;;;;;;7.70;3.90;;;1.20;99.90;;;;;;5092458;28;20544;-59
2024/01/16 02:33:53;;;;;;;9.65;4.70;;;1.30;99.90;;;;;;5092571;28;20161;-59
2024/01/16 02:36:19;;;;;;;15.02;5.18;;;1.20;99.90;;;;;;5092376;28;20205;-59
2024/01/16 02:38:44;;;;;;;12.95;4.80;;;1.20;99.90;;;;;;5092489;28;20210;-59
2024/01/16 02:41:15;;;;;;;7.97;4.57;;;1.20;99.90;;;;;;5092868;28;20171;-53
2024/01/16 02:43:41;;;;;;;10.02;5.28;;;1.20;99.90;;;;;;5092549;28;20165;-52
2024/01/16 02:46:08;;;;;;;9.48;4.63;;;1.20;99.90;;;;;;5092781;28;20605;-56
2024/01/16 02:48:34;;;;;;;14.93;4.88;;;1.10;99.90;;;;;;5092525;28;20256;-59
2024/01/16 02:51:00;;;;;;;11.73;4.85;;;1.20;99.90;;;;;;5092421;28;20180;-56
2024/01/16 02:53:26;;;;;;;9.23;5.25;;;1.20;99.90;;;;;;5092176;28;20637;-59
2024/01/16 02:55:52;;;;;;;10.40;5.70;;;1.10;99.90;;;;;;5092098;28;20225;-57
2024/01/16 02:58:18;;;;;;;11.25;4.95;;;1.10;99.90;;;;;;5092297;28;20543;-55
2024/01/16 03:00:43;;;;;;;10.82;4.75;;;1.20;99.90;;;;;;5091978;28;20172;-59
2024/01/16 03:03:10;;;;;;;9.20;5.07;;;1.10;99.90;;;;;;5092469;28;20629;-57
2024/01/16 03:05:36;;;;;;;14.65;5.57;;;1.10;99.90;;;;;;5091997;28;20165;-59
2024/01/16 03:08:01;;;;;;;11.23;4.65;;;1.10;99.90;;;;;;5092003;28;20176;-58
2024/01/16 03:10:27;;;;;;;13.77;5.70;;;1.10;99.90;;;;;;5091912;28;20271;-59
2024/01/16 03:12:53;;;;;;;9.52;4.75;;;1.10;99.90;;;;;;5092049;28;20169;-59
2024/01/16 03:15:18;;;;;;;11.23;4.93;;;1.20;99.90;;;;;;5091749;28;20600;-59
2024/01/16 03:17:44;;;;;;;8.85;3.90;;;1.20;99.90;;;;;;5091690;28;20177;-59
2024/01/16 03:20:10;;;;;;;12.52;4.95;;;1.20;99.90;;;;;;5092155;28;20193;-59
2024/01/16 03:22:35;;;;;;;8.63;4.90;;;1.20;99.90;;;;;;5091918;28;20169;-57
2024/01/16 03:25:02;;;;;;;11.80;5.10;;;1.20;99.90;;;;;;5091558;28;20172;-59
2024/01/16 03:27:28;;;;;;;14.07;5.63;;;1.20;99.90;;;;;;5091830;28;20161;-59
2024/01/16 03:29:53;;;;;;;11.10;5.32;;;1.20;99.90;;;;;;5091435;28;20268;-53
2024/01/16 03:32:19;;;;;;;11.23;4.85;;;1.20;99.90;;;;;;5091341;28;20165;-56
2024/01/16 03:34:44;;;;;;;9.52;4.30;;;1.10;99.90;;;;;;5091717;28;20166;-60
2024/01/16 03:37:10;;;;;;;8.45;5.25;;;1.20;99.90;;;;;;5091978;28;20201;-59
2024/01/16 03:39:35;;;;;;;16.52;5.53;;;1.20;99.90;;;;;;5091997;28;20256;-59
2024/01/16 03:42:01;;;;;;;7.25;4.90;;;1.20;99.90;;;;;;5091620;28;20169;-58
2024/01/16 03:44:27;;;;;;;8.93;4.88;;;1.10;99.90;;;;;;5091664;28;20169;-58
2024/01/16 03:46:52;;;;;;;9.20;6.05;;;1.20;99.90;;;;;;5091361;28;20173;-58
2024/01/16 03:49:18;;;;;;;10.18;5.57;;;1.10;99.90;;;;;;5091271;28;20222;-54
2024/01/16 03:51:46;;;;;;;7.57;4.60;;;1.10;99.90;;;;;;5091254;28;20180;-53
2024/01/16 03:54:13;;;;;;;11.50;6.70;;;1.10;99.90;;;;;;5091365;28;20164;-53
2024/01/16 03:56:39;;;;;;;7.07;4.65;;;1.10;99.90;;;;;;5107109;28;20225;-54
2024/01/16 03:59:05;;;;;;;11.68;5.75;;;1.10;99.90;;;;;;5091151;28;20166;-54
2024/01/16 04:01:32;;;;;;;10.45;5.28;;;1.10;99.90;;;;;;5091182;28;20202;-60
2024/01/16 04:03:58;;;;;;;12.98;5.38;;;1.10;99.90;;;;;;5091458;28;20165;-59
2024/01/16 04:06:23;;;;;;;11.23;6.03;;;1.10;99.90;;;;;;5091137;28;20245;-59
2024/01/16 04:08:49;;;;;;;13.02;5.65;;;1.10;99.90;;;;;;5091096;28;20189;-59
2024/01/16 04:11:15;;;;;;;8.38;4.90;;;1.10;99.90;;;;;;5091064;28;20168;-59
2024/01/16 04:13:41;;;;;;;11.70;5.55;;;1.00;99.90;;;;;;5091821;28;20166;-59
2024/01/16 04:16:07;;;;;;;9.70;5.10;;;1.00;99.90;;;;;;5091389;28;20687;-58
2024/01/16 04:18:40;;;;;;;11.55;5.07;;;1.00;99.90;;;;;;5090972;28;20169;-59
2024/01/16 04:21:06;;;;;;;9.05;3.92;;;1.00;99.90;;;;;;5090989;28;20166;-58
2024/01/16 04:23:32;;;;;;;7.18;4.25;;;1.00;99.90;;;;;;5090912;28;20211;-59
2024/01/16 04:25:58;;;;;;;8.70;4.30;;;1.00;99.90;;;;;;5091030;28;20227;-59
2024/01/16 04:28:23;;;;;;;10.63;5.13;;;1.00;99.90;;;;;;5090895;28;20166;-59
2024/01/16 04:30:49;;;;;;;11.27;5.00;;;1.00;99.90;;;;;;5090750;28;20226;-59
2024/01/16 04:33:15;;;;;;;15.57;5.55;;;1.10;99.90;;;;;;5090928;28;20192;-59
2024/01/16 04:35:40;;;;;;;16.83;6.22;;;1.10;99.90;;;;;;5091265;28;20185;-52
2024/01/16 04:38:07;;;;;;;9.07;4.55;;;1.10;99.90;;;;;;5091298;28;20191;-54
2024/01/16 04:40:33;;;;;;;8.05;4.65;;;1.00;99.90;;;;;;5090638;28;20186;-58
2024/01/16 04:42:59;;;;;;;15.07;4.93;;;1.10;99.90;;;;;;5092824;28;20239;-59
2024/01/16 04:45:24;;;;;;;11.88;4.05;;;1.10;99.90;;;;;;5094869;28;20170;-59
2024/01/16 04:47:50;;;;;;;10.10;5.40;;;1.10;99.90;;;;;;5094888;28;20625;-57
2024/01/16 04:50:15;;;;;;;12.85;5.03;;;1.10;99.90;;;;;;5094620;28;20168;-58
2024/01/16 04:52:41;;;;;;;15.90;5.03;;;1.20;99.90;;;;;;5094484;28;20177;-53
2024/01/16 04:55:07;;;;;;;8.20;4.32;;;1.20;99.90;;;;;;5094925;28;20171;-59
2024/01/16 04:57:33;;;;;;;9.77;3.80;;;1.20;99.90;;;;;;5094154;28;20233;-59
2024/01/16 04:59:59;;;;;;;13.25;5.07;;;1.20;99.90;;;;;;5094454;28;20176;-59
2024/01/16 05:02:24;;;;;;;12.18;4.60;;;1.20;99.90;;;;;;5094251;28;20348;-60
2024/01/16 05:04:51;;;;;;;14.25;4.38;;;1.20;99.90;;;;;;5094351;28;20219;-60
2024/01/16 05:07:20;;;;;;;8.95;4.22;;;1.20;99.90;;;;;;5094580;28;20232;-57
2024/01/16 05:09:46;;;;;;;15.43;5.32;;;1.20;99.90;;;;;;5094385;28;20177;-57
2024/01/16 05:12:12;;;;;;;9.80;4.00;;;1.20;99.90;;;;;;5094183;28;20165;-56
2024/01/16 05:14:37;;;;;;;10.07;4.22;;;1.20;99.90;;;;;;5094797;28;20169;-58
2024/01/16 05:17:03;;;;;;;13.55;5.82;;;1.20;99.90;;;;;;5094006;28;20289;-55
2024/01/16 05:19:29;;;;;;;13.68;4.60;;;1.20;99.90;;;;;;5094009;28;20169;-59
2024/01/16 05:21:54;;;;;;;11.05;3.65;;;1.20;99.90;;;;;;5093987;28;20165;-58
2024/01/16 05:24:20;;;;;;;8.23;3.30;;;1.10;99.90;;;;;;5094125;28;20173;-57
2024/01/16 05:26:45;;;;;;;9.00;3.50;;;1.10;99.90;;;;;;5093608;28;20171;-59
2024/01/16 05:29:11;;;;;;;15.88;4.65;;;1.10;99.90;;;;;;5093703;28;20177;-59
2024/01/16 05:31:43;;;;;;;12.02;3.47;;;1.10;99.90;;;;;;5094423;28;20272;-55
2024/01/16 05:34:12;;;;;;;11.65;3.92;;;1.10;99.90;;;;;;5094070;28;20157;-58
2024/01/16 05:36:38;;;;;;;9.90;4.40;;;1.10;99.90;;;;;;5094066;28;20205;-59
2024/01/16 05:39:04;;;;;;;15.98;4.75;;;1.10;99.90;;;;;;5093453;28;20678;-59
2024/01/16 05:41:34;;;;;;;9.55;3.53;;;1.10;99.90;;;;;;5093544;28;20191;-59
2024/01/16 05:43:59;;;;;;;13.00;3.22;;;1.10;99.90;;;;;;5093595;28;20253;-58
2024/01/16 05:46:25;;;;;;;13.70;4.15;;;1.10;99.90;;;;;;5093440;28;20659;-59
2024/01/16 05:48:50;;;;;;;13.68;3.40;;;1.00;99.90;;;;;;5093412;28;20173;-59
2024/01/16 05:51:16;;;;;;;11.70;4.25;;;1.10;99.90;;;;;;5093375;28;20161;-60
2024/01/16 05:53:42;;;;;;;10.25;3.97;;;1.00;99.90;;;;;;5093422;28;20516;-59
2024/01/16 05:56:07;;;;;;;7.53;3.47;;;1.10;99.90;;;;;;5093613;28;20693;-59
2024/01/16 05:58:38;;;;;;;8.10;3.50;;;1.10;99.90;;;;;;5093453;28;20556;-53
2024/01/16 06:01:04;;;;;;;10.05;3.58;;;1.10;99.90;;;;;;5092417;28;20173;-58
2024/01/16 06:03:30;;;;;;;7.72;3.50;;;1.10;99.90;;;;;;5093496;28;20692;-53
2024/01/16 06:05:56;;;;;;;7.82;3.10;;;1.10;99.90;;;;;;5093052;28;20635;-60
2024/01/16 06:08:21;;;;;;;8.68;2.88;;;1.00;99.90;;;;;;5108782;28;20620;-59
2024/01/16 06:10:47;;;;;;;10.23;3.72;;;1.10;99.90;;;;;;5093345;28;20200;-58
2024/01/16 06:13:12;;;;;;;6.75;3.28;;;1.10;99.90;;;;;;5092928;28;20710;-54
2024/01/16 06:15:38;;;;;;;7.65;3.55;;;1.10;99.90;;;;;;5093545;28;20613;-58
2024/01/16 06:18:04;;;;;;;9.43;3.38;;;1.10;99.90;;;;;;5092886;28;20621;-54
2024/01/16 06:20:30;;;;;;;8.80;3.15;;;1.10;99.90;;;;;;5092786;28;20161;-52
2024/01/16 06:22:56;;;;;;;10.55;3.10;;;1.10;99.90;;;;;;5093001;28;20169;-55
2024/01/16 06:25:22;;;;;;;7.32;2.80;;;1.10;99.90;;;;;;5092713;28;20666;-51
2024/01/16 06:27:47;;;;;;;9.32;3.08;;;1.10;99.90;;;;;;5092680;28;20174;-51
2024/01/16 06:30:13;;;;;;;9.40;3.40;;;1.10;99.90;;;;;;5092563;28;20169;-58
2024/01/16 06:32:39;;;;;;;11.68;3.05;;;1.10;99.90;;;;;;5093042;28;20176;-57
2024/01/16 06:35:05;;;;;;;12.73;2.97;;;1.10;99.90;;;;;;5092750;28;20238;-58
2024/01/16 06:37:31;;;;;;;6.20;2.38;;;1.10;99.90;;;;;;5092265;28;20676;-49
2024/01/16 06:39:56;;;;;;;11.00;2.95;;;1.10;99.90;;;;;;5092338;28;20165;-57
2024/01/16 06:42:22;;;;;;;9.07;3.13;;;1.20;99.90;;;;;;5092387;28;20169;-57
2024/01/16 06:44:47;;;;;;;7.97;2.85;;;1.10;99.90;;;;;;5092355;28;20222;-59
2024/01/16 06:47:13;;;;;;;10.52;3.10;;;1.20;99.90;;;;;;5092192;28;20525;-58
2024/01/16 06:49:39;;;;;;;9.35;2.38;;;1.20;99.90;;;;;;5092666;28;20259;-59
2024/01/16 06:52:04;;;;;;;3.90;2.42;;;1.20;99.90;;;;;;5092185;28;20174;-58
2024/01/16 06:54:30;;;;;;;5.72;2.72;;;1.20;99.90;;;;;;5092199;28;20161;-58
2024/01/16 06:56:55;;;;;;;8.23;2.70;;;1.30;99.90;;;;;;5091954;28;20228;-58
2024/01/16 06:59:21;;;;;;;6.15;2.10;;;1.20;99.90;;;;;;5092363;28;20169;-51
2024/01/16 07:01:48;;;;;;;7.32;2.63;;;1.20;99.90;;;;;;5092003;28;20189;-58
2024/01/16 07:04:16;;;;;;;7.40;2.75;;;1.20;99.90;;;;;;5090843;28;20260;-52
2024/01/16 07:06:42;;;;;;;13.63;2.38;;;1.20;99.90;;;;;;5091503;28;20173;-52
2024/01/16 07:09:10;;;;;;;14.57;3.83;;;1.20;99.90;;;;;;5092632;28;20190;-53
2024/01/16 07:11:36;;;;;;;15.38;4.72;;;1.20;99.90;;;;;;5108053;28;20168;-47
2024/01/16 07:14:03;;;;;;;9.30;3.78;;;1.20;99.90;;;;;;5092037;28;20565;-59
2024/01/16 07:16:28;;;;;;;8.48;4.60;;;1.30;99.90;;;;;;5091663;28;20203;-53
2024/01/16 07:18:55;;;;;;;8.23;3.25;;;1.30;99.90;;;;;;5091843;28;20165;-54
2024/01/16 07:21:21;;;;;;;13.05;4.80;;;1.20;99.90;;;;;;5091615;28;20693;-50
2024/01/16 07:23:47;;;;;;;9.00;4.15;;;1.30;99.90;;;;;;5091690;28;20168;-59
2024/01/16 07:26:13;;;;;;;14.70;4.45;;;1.30;99.90;;;;;;5091554;28;20162;-52
2024/01/16 07:28:38;;;;;;;11.38;3.97;;;1.20;99.90;;;;;;5092370;28;20593;-51
2024/01/16 07:31:05;;;;;;;13.85;4.65;;;1.20;99.90;;;;;;5091559;28;20226;-52
2024/01/16 07:33:30;;;;;;;14.25;4.22;;;1.20;99.90;;;;;;5091563;28;20187;-50
2024/01/16 07:35:56;;;;;;;9.93;3.60;;;1.20;99.90;;;;;;5091634;28;20197;-49
2024/01/16 07:38:22;;;;;;;10.35;3.00;;;1.20;99.90;;;;;;5091402;28;20173;-49
2024/01/16 07:40:47;;;;;;;12.02;3.83;;;1.10;99.90;;;;;;5091358;28;20169;-49
2024/01/16 07:43:13;;;;;;;8.23;3.80;;;1.20;99.90;;;;;;5091444;28;20161;-48
2024/01/16 07:45:38;;;;;;;11.98;4.15;;;1.10;99.90;;;;;;5091906;28;20172;-50
2024/01/16 07:48:04;;;;;;;7.07;3.15;;;1.10;99.90;;;;;;5091371;28;20193;-50
2024/01/16 07:50:30;;;;;;;10.85;3.20;;;1.10;99.90;;;;;;5091225;28;20157;-48
2024/01/16 07:52:56;;;;;;;8.57;2.60;;;1.10;99.90;;;;;;5091200;28;20172;-50
2024/01/16 07:55:21;;;;;;;6.93;2.00;;;1.10;99.90;;;;;;5091121;28;20240;-49
2024/01/16 07:57:47;;;;;;;9.95;2.90;;;1.00;99.90;;;;;;5091384;28;20232;-50
2024/01/16 08:00:12;;;;;;;8.13;2.90;;;0.20;99.90;;;;;;5091265;28;20228;-48
2024/01/16 08:02:38;;;;;;;9.85;2.92;;;1.00;99.90;;;;;;5090428;28;20253;-52
2024/01/16 08:05:05;;;;;;;8.40;2.78;;;1.00;99.90;;;;;;5089669;28;20214;-52
2024/01/16 08:07:31;;;;;;;12.63;3.20;;;1.00;99.90;;;;;;5090437;28;20176;-49
2024/01/16 08:09:57;;;;;;;7.57;2.85;;;1.00;99.90;;;;;;5087012;28;20165;-48
2024/01/16 08:12:23;;;;;;;9.55;3.55;;;1.00;99.90;;;;;;5090409;28;20166;-64
2024/01/16 08:14:48;;;;;;;8.10;3.05;;;1.00;99.90;;;;;;5090887;28;20264;-59
2024/01/16 08:17:14;;;;;;;8.75;2.90;;;1.00;99.90;;;;;;5089722;28;20227;-56
2024/01/16 08:19:40;;;;;;;9.48;3.22;;;1.00;99.90;;;;;;5095657;28;20181;-57
2024/01/16 08:22:06;;;;;;;10.30;3.25;;;1.00;99.90;;;;;;5094436;28;20173;-56
2024/01/16 08:24:32;;;;;;;8.65;3.00;;;1.00;99.90;;;;;;5094804;28;20219;-56
2024/01/16 08:26:59;;;;;;;7.88;2.83;;;0.90;99.90;;;;;;5094808;28;20184;-56
2024/01/16 08:29:25;;;;;;;5.60;2.83;;;1.00;99.90;;;;;;5094960;28;20521;-57
2024/01/16 08:31:53;;;;;;;7.47;3.00;;;1.00;99.90;;;;;;5094901;28;20256;-56
2024/01/16 08:34:19;;;;;;;10.65;3.20;;;1.00;99.90;;;;;;5094493;28;20207;-56
2024/01/16 08:36:45;;;;;;;6.70;3.17;;;1.00;99.90;;;;;;5094377;28;20209;-57
2024/01/16 08:39:11;;;;;;;8.40;3.00;;;1.00;99.90;;;;;;5094980;28;20176;-56
2024/01/16 08:41:37;;;;;;;6.65;2.85;;;1.00;99.90;;;;;;5093614;28;20620;-55
2024/01/16 08:44:02;;;;;;;6.03;2.75;;;1.00;99.90;;;;;;5094094;28;20177;-55
2024/01/16 08:46:28;;;;;;;8.07;3.47;;;1.00;99.90;;;;;;5094379;28;20170;-54
2024/01/16 08:48:54;;;;;;;7.70;3.20;;;1.00;99.90;;;;;;5092016;28;20280;-54
2024/01/16 08:51:19;;;;;;;6.70;3.28;;;1.00;99.90;;;;;;5093656;28;20218;-54
2024/01/16 08:53:45;;;;;;;7.95;2.42;;;1.10;99.90;;;;;;5093875;28;20183;-54
2024/01/16 08:56:12;;;;;;;11.57;3.42;;;1.10;99.90;;;;;;5092887;28;20213;-47
2024/01/16 08:58:38;;;;;;;6.22;3.10;;;1.10;99.90;;;;;;5093136;28;20181;-47
2024/01/16 09:01:07;;;;;;;5.78;3.05;;;1.20;99.90;;;;;;5093661;28;20625;-48
2024/01/16 09:03:34;;;;;;;5.10;2.50;;;1.20;99.90;;;;;;5093004;28;20686;-48
2024/01/16 09:06:00;;;;;;;8.27;3.05;;;1.10;99.90;;;;;;5094381;28;20547;-47
2024/01/16 09:08:26;;;;;;;3.97;2.42;;;1.20;99.90;;;;;;5094263;28;20240;-47
2024/01/16 09:10:55;;;;;;;9.18;2.80;;;1.10;99.90;;;;;;5094174;28;20200;-48
2024/01/16 09:13:23;;;;;;;9.60;2.95;;;1.20;99.90;;;;;;5094069;28;20161;-48
2024/01/16 09:15:49;;;;;;;6.03;3.03;;;1.20;99.90;;;;;;5094030;28;20201;-47
2024/01/16 09:18:17;;;;;;;8.45;2.53;;;1.20;99.90;;;;;;5094325;28;20255;-48
2024/01/16 09:20:43;;;;;;;4.32;2.50;;;1.10;99.90;;;;;;5094005;28;20519;-47
2024/01/16 09:23:09;;;;;;;10.20;2.83;;;1.20;99.90;;;;;;5094679;28;20169;-47
2024/01/16 09:25:35;;;;;;;10.00;3.45;;;0.60;99.90;;;;;;5094609;28;20170;-47
2024/01/16 09:28:01;;;;;;;7.80;3.28;;;1.20;99.90;;;;;;5093529;28;20169;-47
2024/01/16 09:30:27;;;;;;;4.05;2.55;;;1.30;99.90;;;;;;5093733;28;20162;-48
2024/01/16 09:32:52;;;;;;;6.47;3.25;;;1.30;99.90;;;;;;5093769;28;20168;-49
2024/01/16 09:35:18;;;;;;;5.93;2.78;;;1.30;99.90;;;;;;5092493;28;20224;-47
2024/01/16 09:37:43;;;;;;;11.00;3.47;;;1.20;99.90;;;;;;5093665;28;20211;-47
2024/01/16 09:40:10;;;;;;;10.40;3.20;;;1.20;99.90;;;;;;5094190;28;20173;-47
2024/01/16 09:42:36;;;;;;;8.15;2.70;;;1.30;99.90;;;;;;5094080;28;20169;-48
2024/01/16 09:45:04;;;;;;;6.80;2.70;;;1.30;99.90;;;;;;5093827;28;20240;-47
2024/01/16 09:47:34;;;;;;;6.10;3.22;;;1.30;99.90;;;;;;5093508;28;20177;-47
2024/01/16 09:50:02;;;;;;;5.03;2.80;;;1.30;99.90;;;;;;5093458;28;20205;-47
2024/01/16 09:52:28;;;;;;;7.10;2.75;;;1.30;99.90;;;;;;5093370;28;20169;-47
2024/01/16 09:54:54;;;;;;;9.07;3.20;;;1.30;99.90;;;;;;5093642;28;20241;-48
2024/01/16 09:57:22;;;;;;;10.45;3.10;;;1.30;99.90;;;;;;5092897;28;20355;-48
2024/01/16 09:59:48;;;;;;;6.35;2.95;;;1.40;99.90;;;;;;5093316;28;20187;-48
2024/01/16 10:02:14;;;;;;;11.57;3.50;;;1.30;99.90;;;;;;5093211;28;20633;-48
2024/01/16 10:04:41;;;;;;;7.38;3.67;;;1.30;99.90;;;;;;5093093;28;20554;-47
2024/01/16 10:07:09;;;;;;;5.97;3.00;;;1.50;99.90;;;;;;5093690;28;20568;-47
2024/01/16 10:09:35;;;;;;;4.15;2.72;;;1.40;99.90;;;;;;5093618;28;20197;-48
2024/01/16 10:12:02;;;;;;;7.43;3.17;;;1.30;99.90;;;;;;5093007;28;20207;-48
2024/01/16 10:14:28;;;;;;;7.22;2.90;;;1.50;99.90;;;;;;5092899;28;20719;-48
2024/01/16 10:17:14;;;;;;;12.82;5.32;;;1.50;99.90;;;;;;5092782;28;20288;-48
2024/01/16 10:19:50;;;;;;;7.50;3.92;;;1.70;99.90;;;;;;5093301;28;20211;-47
2024/01/16 10:22:24;;;;;;;11.23;3.92;;;1.70;99.90;;;;;;5092809;28;20562;-48
2024/01/16 10:25:07;;;;;;;6.07;3.30;;;1.70;99.90;;;;;;5093000;28;20196;-47
2024/01/16 10:27:34;;;;;;;6.68;2.95;;;1.90;99.90;;;;;;5092513;28;20689;-47
2024/01/16 10:30:00;;;;;;;7.93;3.40;;;1.80;99.90;;;;;;5092648;28;20204;-47
2024/01/16 10:32:37;;;;;;;5.30;3.38;;;1.90;99.90;;;;;;5092557;28;20196;-48
2024/01/16 10:35:09;;;;;;;10.80;3.97;;;1.90;99.90;;;;;;5092599;28;20168;-47
2024/01/16 10:37:44;;;;;;;8.05;3.38;;;2.00;99.90;;;;;;5092845;28;20663;-48
2024/01/16 10:40:14;;;;;;;9.57;3.47;;;2.10;99.90;;;;;;5091821;28;20165;-47
2024/01/16 10:42:39;;;;;;;8.77;2.55;;;2.10;99.90;;;;;;5092400;28;20188;-47
2024/01/16 10:45:06;;;;;;;7.32;3.75;;;2.00;99.90;;;;;;5092858;28;20624;-50
2024/01/16 10:47:36;;;;;;;10.23;3.63;;;1.90;99.90;;;;;;5091075;28;20169;-50
2024/01/16 10:50:03;;;;;;;5.57;2.85;;;2.00;99.90;;;;;;5092284;28;20601;-49
2024/01/16 10:52:33;;;;;;;11.80;3.80;;;1.90;99.90;;;;;;5092143;28;20165;-47
2024/01/16 10:55:04;;;;;;;5.43;2.95;;;2.00;99.90;;;;;;5092208;28;20188;-47
2024/01/16 10:57:31;;;;;;;7.78;2.70;;;1.90;99.90;;;;;;5091894;28;20229;-52
2024/01/16 11:00:08;;;;;;;11.00;2.97;;;1.90;99.90;;;;;;5092122;28;20169;-48
2024/01/16 11:02:44;;;;;;;9.40;3.13;;;1.80;99.90;;;;;;5092290;28;20165;-48
2024/01/16 11:05:12;;;;;;;12.85;4.57;;;1.70;99.90;;;;;;5092083;28;20263;-47
2024/01/16 11:07:39;;;;;;;6.10;3.50;;;1.70;99.90;;;;;;5092479;28;20177;-47
2024/01/16 11:10:06;;;;;;;9.15;2.88;;;1.60;99.90;;;;;;5092436;28;20168;-48
2024/01/16 11:12:33;;;;;;;8.07;3.72;;;1.60;99.90;;;;;;5091885;28;20153;-48
2024/01/16 11:15:07;;;;;;;4.20;2.33;;;1.50;99.90;;;;;;5091751;28;20166;-49
2024/01/16 11:17:34;;;;;;;4.10;2.33;;;1.50;99.90;;;;;;5091924;28;20209;-51
2024/01/16 11:20:00;;;;;;;13.15;3.42;;;1.50;99.90;;;;;;5091690;28;20165;-50
2024/01/16 11:22:28;;;;;;;6.28;2.90;;;1.60;99.90;;;;;;5091706;28;20174;-50
2024/01/16 11:25:12;;;;;;;9.18;3.58;;;1.60;99.90;;;;;;5091630;28;20534;-50
2024/01/16 11:27:39;;;;;;;9.77;3.47;;;1.60;99.90;;;;;;5092322;28;20172;-47
2024/01/16 11:30:09;;;;;;;12.98;3.60;;;1.60;99.90;;;;;;5092065;28;20169;-48
2024/01/16 11:32:44;;;;;;;10.30;2.97;;;1.60;99.90;;;;;;5092087;28;20197;-48
2024/01/16 11:35:11;;;;;;;8.40;3.05;;;1.70;99.90;;;;;;5091773;28;20177;-48
2024/01/16 11:37:41;;;;;;;7.15;3.45;;;1.70;99.90;;;;;;5092126;28;20230;-56
2024/01/16 11:40:21;;;;;;;7.43;3.10;;;1.60;99.90;;;;;;5091990;28;20528;-56
2024/01/16 11:42:52;;;;;;;9.75;3.00;;;1.70;99.90;;;;;;5091486;28;20169;-56
2024/01/16 11:45:27;;;;;;;7.38;2.72;;;1.80;99.90;;;;;;5091640;28;20213;-56
2024/01/16 11:48:12;;;;;;;7.80;3.15;;;1.90;99.90;;;;;;5091369;28;20164;-55
2024/01/16 11:50:39;;;;;;;5.82;2.88;;;1.90;99.90;;;;;;5091771;28;20161;-55
2024/01/16 11:53:04;;;;;;;4.32;2.67;;;1.90;99.90;;;;;;5091701;28;20157;-56
2024/01/16 11:55:56;;;;;;;8.13;3.03;;;1.90;99.90;;;;;;5091161;28;20172;-56
2024/01/16 11:58:43;;;;;;;8.15;3.80;;;1.90;99.90;;;;;;5091191;28;20189;-56
2024/01/16 12:01:11;;;;;;;9.65;3.85;;;2.00;99.90;;;;;;5091735;28;20157;-55
2024/01/16 12:03:37;;;;;;;7.45;3.60;;;2.00;99.90;;;;;;5091936;28;20177;-55
2024/01/16 12:06:06;;;;;;;6.25;3.42;;;2.00;99.90;;;;;;5091120;28;20165;-55
2024/01/16 12:08:31;;;;;;;10.75;3.28;;;2.00;99.90;;;;;;5091051;28;20633;-56
2024/01/16 12:10:57;;;;;;;10.00;3.17;;;2.10;99.90;;;;;;5091349;28;20260;-56
2024/01/16 12:13:23;;;;;;;5.72;2.90;;;2.20;99.90;;;;;;5091308;28;20315;-56
2024/01/16 12:15:58;;;;;;;5.93;3.05;;;2.20;99.90;;;;;;5091101;28;20201;-56
2024/01/16 12:18:24;;;;;;;10.25;3.33;;;2.10;99.90;;;;;;5091019;28;20165;-56
2024/01/16 12:20:50;;;;;;;5.32;3.05;;;2.10;99.90;;;;;;5090979;28;20256;-55
2024/01/16 12:23:16;;;;;;;15.63;3.20;;;2.10;99.90;;;;;;5091207;28;20161;-56
2024/01/16 12:25:42;;;;;;;3.35;2.00;;;2.00;99.90;;;;;;5090863;28;20165;-55
2024/01/16 12:28:10;;;;;;;7.65;2.80;;;2.10;99.90;;;;;;5091439;28;20176;-54
2024/01/16 12:30:37;;;;;;;8.05;3.70;;;2.00;99.90;;;;;;5091736;28;20173;-56
2024/01/16 12:33:09;;;;;;;8.40;3.47;;;2.00;99.90;;;;;;5090804;28;20162;-54
2024/01/16 12:35:42;;;;;;;6.95;3.22;;;2.10;99.90;;;;;;5091598;28;20170;-61
2024/01/16 12:38:09;;;;;;;9.75;3.53;;;2.20;99.90;;;;;;5095766;28;20299;-54
2024/01/16 12:40:44;;;;;;;6.97;3.33;;;3.50;99.90;;;;;;5109927;28;20556;-61
2024/01/16 12:43:09;;;;;;;6.32;2.80;;;2.40;99.90;;;;;;5108470;28;20176;-55
2024/01/16 12:45:35;;;;;;;5.38;3.20;;;2.30;99.90;;;;;;5109798;28;20169;-58
2024/01/16 12:48:03;;;;;;;8.60;3.22;;;2.40;99.90;;;;;;5109536;28;20649;-57
2024/01/16 12:50:30;;;;;;;7.60;3.33;;;2.40;99.90;;;;;;5109315;28;20323;-59